createdAt,value
2022-07-30T00:02:14.558Z,3.20
2022-07-30T00:04:42.681Z,4.90
2022-07-30T00:07:10.827Z,3.40
2022-07-30T00:09:38.940Z,3.67
2022-07-30T00:12:10.026Z,3.67
2022-07-30T00:14:38.936Z,3.50
2022-07-30T00:17:07.139Z,3.57
2022-07-30T00:19:35.445Z,3.00
2022-07-30T00:22:04.333Z,3.30
2022-07-30T00:24:32.432Z,3.80
2022-07-30T00:27:00.951Z,3.80
2022-07-30T00:29:30.834Z,3.67
2022-07-30T00:31:58.966Z,3.40
2022-07-30T00:34:27.130Z,3.97
2022-07-30T00:36:55.193Z,3.43
2022-07-30T00:39:23.304Z,4.10
2022-07-30T00:42:00.038Z,4.43
2022-07-30T00:44:30.705Z,3.90
2022-07-30T00:46:59.508Z,3.93
2022-07-30T00:49:28.075Z,3.43
2022-07-30T00:51:56.361Z,4.77
2022-07-30T00:54:24.451Z,3.70
2022-07-30T00:56:52.897Z,4.30
2022-07-30T00:59:20.972Z,4.57
2022-07-30T01:01:50.460Z,3.57
2022-07-30T01:04:18.541Z,4.20
2022-07-30T01:06:46.813Z,3.97
2022-07-30T01:09:14.930Z,3.27
2022-07-30T01:11:44.274Z,3.60
2022-07-30T01:14:12.507Z,3.90
2022-07-30T01:16:43.381Z,3.83
2022-07-30T01:19:39.034Z,3.93
2022-07-30T01:22:14.247Z,4.20
2022-07-30T01:24:47.820Z,3.70
2022-07-30T01:27:20.023Z,3.87
2022-07-30T01:29:49.874Z,3.97
2022-07-30T01:32:19.554Z,4.10
2022-07-30T01:34:48.897Z,4.00
2022-07-30T01:37:18.450Z,3.30
2022-07-30T01:39:49.883Z,3.60
2022-07-30T01:42:20.860Z,3.70
2022-07-30T01:44:50.948Z,3.90
2022-07-30T01:47:21.588Z,4.20
2022-07-30T01:49:51.983Z,3.97
2022-07-30T01:52:21.954Z,4.33
2022-07-30T01:54:53.615Z,3.60
2022-07-30T01:57:24.327Z,4.30
2022-07-30T02:00:00.476Z,3.97
2022-07-30T02:02:28.763Z,3.97
2022-07-30T02:04:56.925Z,3.43
2022-07-30T02:07:37.284Z,4.43
2022-07-30T02:10:09.495Z,4.20
2022-07-30T02:12:44.192Z,4.50
2022-07-30T02:15:19.303Z,4.13
2022-07-30T02:18:00.088Z,3.90
2022-07-30T02:20:31.696Z,4.23
2022-07-30T02:23:07.711Z,4.40
2022-07-30T02:25:40.073Z,3.70
2022-07-30T02:28:13.009Z,4.17
2022-07-30T02:30:51.630Z,4.97
2022-07-30T02:33:24.485Z,4.17
2022-07-30T02:35:55.609Z,3.80
2022-07-30T02:38:25.382Z,4.73
2022-07-30T02:40:55.892Z,4.07
2022-07-30T02:43:26.912Z,3.90
2022-07-30T02:45:55.439Z,3.97
2022-07-30T02:48:34.525Z,3.50
2022-07-30T02:51:05.533Z,3.37
2022-07-30T02:53:35.155Z,5.73
2022-07-30T02:56:04.352Z,3.60
2022-07-30T02:58:37.831Z,3.60
2022-07-30T03:01:06.996Z,3.70
2022-07-30T03:03:36.408Z,3.03
2022-07-30T03:06:07.414Z,2.70
2022-07-30T03:08:36.583Z,3.30
2022-07-30T03:11:05.914Z,3.40
2022-07-30T03:13:35.494Z,3.80
2022-07-30T03:16:06.539Z,2.90
2022-07-30T03:18:37.572Z,3.70
2022-07-30T03:21:09.626Z,3.20
2022-07-30T03:23:39.195Z,4.13
2022-07-30T03:26:09.510Z,3.20
2022-07-30T03:28:41.159Z,3.83
2022-07-30T03:31:11.863Z,3.80
2022-07-30T03:33:41.812Z,4.00
2022-07-30T03:36:11.411Z,3.37
2022-07-30T03:38:42.542Z,3.50
2022-07-30T03:41:12.844Z,4.00
2022-07-30T03:43:43.002Z,3.90
2022-07-30T03:46:12.463Z,3.10
2022-07-30T03:48:41.770Z,3.07
2022-07-30T03:51:11.593Z,3.40
2022-07-30T03:53:42.213Z,3.20
2022-07-30T03:56:11.176Z,3.07
2022-07-30T03:58:40.937Z,3.50
2022-07-30T04:01:09.103Z,3.57
2022-07-30T04:03:37.361Z,3.23
2022-07-30T04:06:05.809Z,3.87
2022-07-30T04:08:34.023Z,2.60
2022-07-30T04:11:02.206Z,3.10
2022-07-30T04:13:30.605Z,4.43
2022-07-30T04:16:41.112Z,3.70
2022-07-30T04:19:01.482Z,3.40
2022-07-30T04:21:31.136Z,2.90
2022-07-30T04:24:03.936Z,3.50
2022-07-30T04:26:35.979Z,3.10
2022-07-30T04:29:08.388Z,3.20
2022-07-30T04:31:41.066Z,5.40
2022-07-30T04:34:09.785Z,3.40
2022-07-30T04:36:37.928Z,3.40
2022-07-30T04:39:06.077Z,3.63
2022-07-30T04:41:48.055Z,3.10
2022-07-30T04:44:19.378Z,4.00
2022-07-30T04:46:49.181Z,3.57
2022-07-30T04:49:18.871Z,3.70
2022-07-30T04:51:48.018Z,3.67
2022-07-30T04:54:17.136Z,3.47
2022-07-30T04:56:53.666Z,3.67
2022-07-30T04:59:25.605Z,3.50
2022-07-30T05:01:58.793Z,2.70
2022-07-30T05:04:29.298Z,3.33
2022-07-30T05:06:58.811Z,3.53
2022-07-30T05:09:27.739Z,3.40
2022-07-30T05:11:57.424Z,3.20
2022-07-30T05:14:26.111Z,3.43
2022-07-30T05:16:55.882Z,3.43
2022-07-30T05:19:24.247Z,2.80
2022-07-30T05:21:52.402Z,3.00
2022-07-30T05:24:20.407Z,3.17
2022-07-30T05:26:48.944Z,4.10
2022-07-30T05:29:19.341Z,3.60
2022-07-30T05:31:48.944Z,3.37
2022-07-30T05:34:18.544Z,3.00
2022-07-30T05:36:46.627Z,3.70
2022-07-30T05:39:16.206Z,3.23
2022-07-30T05:41:44.499Z,3.13
2022-07-30T05:44:12.672Z,3.50
2022-07-30T05:46:40.777Z,3.77
2022-07-30T05:49:09.022Z,4.30
2022-07-30T05:51:39.120Z,4.47
2022-07-30T05:54:07.476Z,4.17
2022-07-30T05:56:36.018Z,4.67
2022-07-30T05:59:04.262Z,2.90
2022-07-30T06:01:32.352Z,3.47
2022-07-30T06:04:00.554Z,3.50
2022-07-30T06:06:28.785Z,3.20
2022-07-30T06:08:58.278Z,2.93
2022-07-30T06:11:26.352Z,3.30
2022-07-30T06:13:54.411Z,3.57
2022-07-30T06:16:22.595Z,4.00
2022-07-30T06:18:51.041Z,2.97
2022-07-30T06:21:19.092Z,2.70
2022-07-30T06:23:47.105Z,2.53
2022-07-30T06:26:16.521Z,3.73
2022-07-30T06:28:44.527Z,3.00
2022-07-30T06:31:12.619Z,3.00
2022-07-30T06:33:40.755Z,3.10
2022-07-30T06:36:09.062Z,3.17
2022-07-30T06:38:42.536Z,4.00
2022-07-30T06:41:10.978Z,2.90
2022-07-30T06:43:40.454Z,3.70
2022-07-30T06:46:08.597Z,2.93
2022-07-30T06:48:37.393Z,3.53
2022-07-30T06:51:05.618Z,4.40
2022-07-30T06:53:33.733Z,4.37
2022-07-30T06:56:09.756Z,4.10
2022-07-30T06:58:37.788Z,4.10
2022-07-30T07:01:11.006Z,3.57
2022-07-30T07:03:40.700Z,4.23
2022-07-30T07:06:09.640Z,3.60
2022-07-30T07:08:38.657Z,3.93
2022-07-30T07:11:07.193Z,3.87
2022-07-30T07:13:35.337Z,3.27
2022-07-30T07:16:04.148Z,3.90
2022-07-30T07:18:33.536Z,3.33
2022-07-30T07:21:01.723Z,4.20
2022-07-30T07:23:39.868Z,3.00
2022-07-30T07:26:10.129Z,2.67
2022-07-30T07:28:38.288Z,3.20
2022-07-30T07:31:06.455Z,3.10
2022-07-30T07:33:36.065Z,2.70
2022-07-30T07:36:04.626Z,2.73
2022-07-30T07:38:32.734Z,2.77
2022-07-30T07:41:00.891Z,2.93
2022-07-30T07:43:29.065Z,2.90
2022-07-30T07:45:57.172Z,3.10
2022-07-30T07:48:25.304Z,2.63
2022-07-30T07:50:59.651Z,2.80
2022-07-30T07:53:28.750Z,2.80
2022-07-30T07:55:57.286Z,2.07
2022-07-30T07:58:26.538Z,3.00
2022-07-30T08:00:55.328Z,2.50
2022-07-30T08:03:23.647Z,2.67
2022-07-30T08:06:01.747Z,3.33
2022-07-30T08:08:37.049Z,3.00
2022-07-30T08:11:06.993Z,2.80
2022-07-30T08:13:48.731Z,2.40
2022-07-30T08:16:20.816Z,3.03
2022-07-30T08:18:49.034Z,3.30
2022-07-30T08:21:17.064Z,3.17
2022-07-30T08:23:46.719Z,2.27
2022-07-30T08:26:14.801Z,4.07
2022-07-30T08:28:44.015Z,3.00
2022-07-30T08:31:12.107Z,2.93
2022-07-30T08:33:40.182Z,2.73
2022-07-30T08:36:09.718Z,2.80
2022-07-30T08:38:39.563Z,2.60
2022-07-30T08:41:09.256Z,2.23
2022-07-30T08:43:38.513Z,2.30
2022-07-30T08:46:10.898Z,2.70
2022-07-30T08:48:39.284Z,2.20
2022-07-30T08:51:07.993Z,2.10
2022-07-30T08:53:36.797Z,2.43
2022-07-30T08:56:07.952Z,2.23
2022-07-30T08:58:36.204Z,2.37
2022-07-30T09:01:06.819Z,2.20
2022-07-30T09:03:37.367Z,2.30
2022-07-30T09:06:12.861Z,2.10
2022-07-30T09:08:41.604Z,2.00
2022-07-30T09:11:11.199Z,2.33
2022-07-30T09:13:42.616Z,1.80
2022-07-30T09:16:22.400Z,2.47
2022-07-30T09:18:51.956Z,2.70
2022-07-30T09:21:23.984Z,1.87
2022-07-30T09:23:59.893Z,2.00
2022-07-30T09:26:30.294Z,1.80
2022-07-30T09:29:17.500Z,2.50
2022-07-30T09:31:59.499Z,2.30
2022-07-30T09:34:30.937Z,2.43
2022-07-30T09:37:00.762Z,2.20
2022-07-30T09:39:33.936Z,2.33
2022-07-30T09:42:05.040Z,2.40
2022-07-30T09:44:33.338Z,2.17
2022-07-30T09:47:02.883Z,1.90
2022-07-30T09:49:31.477Z,2.27
2022-07-30T09:52:01.181Z,2.07
2022-07-30T09:54:51.720Z,1.40
2022-07-30T09:57:26.607Z,1.93
2022-07-30T09:59:57.334Z,1.93
2022-07-30T10:02:33.415Z,1.63
2022-07-30T10:05:14.196Z,1.77
2022-07-30T10:07:55.205Z,1.70
2022-07-30T10:10:26.078Z,2.03
2022-07-30T10:13:01.098Z,1.90
2022-07-30T10:15:34.939Z,1.90
2022-07-30T10:18:06.327Z,2.03
2022-07-30T10:20:35.212Z,1.70
2022-07-30T10:23:09.106Z,2.03
2022-07-30T10:25:54.923Z,1.60
2022-07-30T10:28:25.929Z,2.07
2022-07-30T10:30:57.263Z,2.07
2022-07-30T10:33:35.263Z,1.60
2022-07-30T10:36:08.929Z,1.47
2022-07-30T10:38:43.116Z,1.53
2022-07-30T10:41:44.296Z,1.40
2022-07-30T10:45:10.397Z,1.70
2022-07-30T10:47:49.691Z,1.60
2022-07-30T10:50:22.542Z,1.80
2022-07-30T10:52:53.097Z,1.23
2022-07-30T10:55:38.581Z,1.50
2022-07-30T10:58:09.965Z,1.30
2022-07-30T11:01:00.211Z,1.70
2022-07-30T11:03:40.502Z,1.50
2022-07-30T11:06:29.318Z,1.70
2022-07-30T11:08:58.205Z,1.60
2022-07-30T11:12:01.497Z,1.40
2022-07-30T11:15:07.121Z,1.63
2022-07-30T11:18:02.451Z,2.27
2022-07-30T11:20:33.970Z,1.57
2022-07-30T11:23:42.825Z,1.37
2022-07-30T11:26:14.178Z,1.90
2022-07-30T11:28:45.463Z,1.77
2022-07-30T11:31:55.600Z,1.60
2022-07-30T11:34:31.236Z,2.27
2022-07-30T11:37:18.518Z,2.20
2022-07-30T11:40:13.649Z,1.30
2022-07-30T11:42:43.490Z,1.73
2022-07-30T11:45:26.784Z,1.67
2022-07-30T11:47:57.069Z,2.07
2022-07-30T11:50:27.885Z,1.60
2022-07-30T11:53:00.096Z,2.00
2022-07-30T11:55:32.560Z,1.60
2022-07-30T11:58:04.216Z,1.73
2022-07-30T12:00:39.724Z,1.60
2022-07-30T12:03:13.131Z,1.10
2022-07-30T12:05:42.688Z,1.80
2022-07-30T12:08:35.309Z,1.60
2022-07-30T12:11:02.891Z,1.80
2022-07-30T12:13:45.477Z,1.53
2022-07-30T12:16:17.218Z,2.03
2022-07-30T12:18:46.564Z,1.30
2022-07-30T12:21:16.671Z,1.70
2022-07-30T12:23:56.395Z,1.70
2022-07-30T12:26:27.246Z,1.50
2022-07-30T12:28:56.943Z,1.70
2022-07-30T12:31:25.300Z,1.50
2022-07-30T12:33:53.434Z,1.70
2022-07-30T12:36:32.934Z,1.50
2022-07-30T12:39:05.486Z,1.40
2022-07-30T12:41:46.665Z,1.80
2022-07-30T12:44:38.929Z,1.30
2022-07-30T12:47:20.083Z,1.57
2022-07-30T12:49:50.245Z,1.43
2022-07-30T12:52:28.177Z,1.40
2022-07-30T12:55:04.922Z,1.70
2022-07-30T12:58:07.418Z,1.33
2022-07-30T13:00:52.082Z,1.50
2022-07-30T13:03:27.009Z,1.53
2022-07-30T13:06:00.783Z,1.53
2022-07-30T13:08:51.960Z,1.40
2022-07-30T13:11:25.556Z,1.40
2022-07-30T13:13:54.697Z,1.07
2022-07-30T13:16:23.287Z,1.30
2022-07-30T13:18:51.382Z,1.50
2022-07-30T13:21:19.726Z,1.40
2022-07-30T13:23:51.827Z,1.53
2022-07-30T13:26:22.468Z,1.13
2022-07-30T13:28:50.581Z,1.63
2022-07-30T13:31:20.191Z,1.60
2022-07-30T13:34:13.275Z,1.60
2022-07-30T13:36:42.956Z,1.57
2022-07-30T13:39:12.245Z,1.67
2022-07-30T13:41:42.595Z,1.30
2022-07-30T13:44:12.939Z,1.40
2022-07-30T13:46:42.727Z,1.10
2022-07-30T13:49:11.695Z,1.50
2022-07-30T13:52:18.769Z,1.63
2022-07-30T13:54:46.859Z,1.43
2022-07-30T13:57:16.775Z,1.50
2022-07-30T13:59:44.887Z,1.17
2022-07-30T14:02:13.140Z,1.30
2022-07-30T14:04:41.233Z,1.50
2022-07-30T14:07:09.352Z,1.40
2022-07-30T14:09:45.842Z,1.67
2022-07-30T14:12:16.791Z,2.03
2022-07-30T14:14:45.248Z,1.60
2022-07-30T14:17:13.286Z,1.40
2022-07-30T14:19:41.330Z,1.80
2022-07-30T14:22:09.474Z,2.20
2022-07-30T14:24:37.784Z,1.20
2022-07-30T14:27:06.393Z,1.93
2022-07-30T14:29:35.955Z,2.17
2022-07-30T14:32:04.527Z,1.20
2022-07-30T14:34:32.731Z,1.10
2022-07-30T14:37:01.087Z,1.53
2022-07-30T14:39:29.928Z,1.60
2022-07-30T14:41:57.992Z,1.50
2022-07-30T14:44:26.106Z,1.83
2022-07-30T14:46:55.757Z,1.30
2022-07-30T14:49:24.176Z,1.20
2022-07-30T14:51:52.540Z,2.30
2022-07-30T14:54:20.976Z,1.40
2022-07-30T14:56:49.244Z,1.90
2022-07-30T14:59:17.819Z,1.20
2022-07-30T15:01:47.789Z,1.20
2022-07-30T15:04:17.737Z,1.53
2022-07-30T15:06:45.826Z,1.50
2022-07-30T15:09:14.185Z,1.10
2022-07-30T15:12:07.910Z,1.13
2022-07-30T15:14:30.670Z,1.90
2022-07-30T15:17:03.934Z,0.90
2022-07-30T15:19:33.982Z,1.00
2022-07-30T15:22:03.310Z,0.97
2022-07-30T15:24:32.290Z,1.00
2022-07-30T15:27:00.488Z,1.00
2022-07-30T15:29:30.072Z,1.03
2022-07-30T15:32:00.044Z,1.40
2022-07-30T15:34:33.802Z,1.40
2022-07-30T15:37:03.956Z,1.10
2022-07-30T15:39:33.928Z,1.00
2022-07-30T15:42:02.990Z,0.80
2022-07-30T15:44:31.475Z,0.97
2022-07-30T15:46:59.827Z,1.10
2022-07-30T15:49:28.316Z,1.13
2022-07-30T15:51:57.385Z,1.10
2022-07-30T15:54:27.249Z,0.70
2022-07-30T15:57:01.267Z,1.37
2022-07-30T15:59:30.411Z,1.20
2022-07-30T16:01:59.376Z,1.13
2022-07-30T16:04:31.366Z,1.13
2022-07-30T16:07:00.902Z,1.50
2022-07-30T16:09:30.676Z,1.27
2022-07-30T16:11:59.623Z,0.97
2022-07-30T16:14:27.986Z,1.30
2022-07-30T16:16:56.341Z,0.80
2022-07-30T16:19:24.586Z,1.20
2022-07-30T16:21:53.096Z,1.10
2022-07-30T16:24:21.688Z,1.17
2022-07-30T16:26:51.165Z,1.00
2022-07-30T16:29:19.658Z,0.90
2022-07-30T16:31:47.998Z,1.17
2022-07-30T16:34:16.208Z,1.77
2022-07-30T16:36:44.413Z,3.00
2022-07-30T16:39:12.773Z,1.10
2022-07-30T16:41:41.745Z,1.30
2022-07-30T16:44:11.236Z,0.97
2022-07-30T16:46:40.462Z,0.90
2022-07-30T16:49:08.805Z,1.30
2022-07-30T16:51:37.057Z,1.20
2022-07-30T16:54:07.559Z,1.23
2022-07-30T16:56:35.693Z,1.00
2022-07-30T16:59:03.811Z,1.10
2022-07-30T17:01:33.930Z,1.40
2022-07-30T17:04:02.120Z,1.13
2022-07-30T17:06:30.251Z,0.80
2022-07-30T17:08:58.386Z,1.37
2022-07-30T17:11:47.669Z,0.80
2022-07-30T17:14:14.667Z,1.00
2022-07-30T17:16:44.120Z,1.00
2022-07-30T17:19:12.213Z,1.00
2022-07-30T17:21:40.344Z,1.13
2022-07-30T17:24:13.404Z,1.70
2022-07-30T17:26:43.196Z,0.93
2022-07-30T17:29:14.286Z,1.30
2022-07-30T17:31:45.352Z,1.17
2022-07-30T17:34:15.377Z,1.47
2022-07-30T17:36:51.766Z,1.77
2022-07-30T17:40:24.791Z,1.50
2022-07-30T17:42:11.595Z,1.83
2022-07-30T17:44:41.052Z,1.50
2022-07-30T17:47:15.118Z,1.77
2022-07-30T17:49:44.639Z,1.73
2022-07-30T17:52:12.951Z,1.37
2022-07-30T17:54:41.309Z,1.17
2022-07-30T17:57:10.034Z,1.80
2022-07-30T17:59:38.177Z,1.50
2022-07-30T18:02:06.718Z,1.90
2022-07-30T18:04:36.693Z,2.20
2022-07-30T18:07:05.028Z,1.40
2022-07-30T18:09:38.943Z,1.97
2022-07-30T18:12:09.064Z,1.97
2022-07-30T18:14:37.303Z,2.07
2022-07-30T18:17:06.426Z,1.90
2022-07-30T18:19:37.841Z,1.73
2022-07-30T18:22:08.463Z,1.37
2022-07-30T18:24:40.231Z,1.90
2022-07-30T18:27:10.121Z,1.70
2022-07-30T18:29:38.225Z,1.30
2022-07-30T18:32:07.353Z,2.10
2022-07-30T18:34:37.308Z,1.47
2022-07-30T18:37:05.420Z,2.10
2022-07-30T18:39:33.539Z,1.80
2022-07-30T18:42:02.116Z,1.53
2022-07-30T18:44:30.788Z,2.20
2022-07-30T18:46:58.803Z,1.70
2022-07-30T18:49:42.417Z,2.07
2022-07-30T18:52:12.364Z,2.37
2022-07-30T18:54:40.450Z,2.00
2022-07-30T18:57:13.918Z,1.60
2022-07-30T18:59:43.012Z,1.80
2022-07-30T19:02:11.183Z,2.03
2022-07-30T19:04:39.439Z,3.10
2022-07-30T19:07:08.209Z,2.77
2022-07-30T19:09:37.928Z,2.27
2022-07-30T19:12:06.750Z,2.23
2022-07-30T19:14:34.985Z,2.03
2022-07-30T19:17:03.131Z,2.03
2022-07-30T19:19:42.388Z,3.50
2022-07-30T19:22:10.571Z,7.83
2022-07-30T19:24:40.089Z,6.67
2022-07-30T19:27:13.726Z,2.97
2022-07-30T19:29:43.270Z,3.63
2022-07-30T19:32:11.399Z,2.70
2022-07-30T19:34:40.734Z,3.70
2022-07-30T19:37:09.450Z,3.17
2022-07-30T19:39:39.008Z,3.20
2022-07-30T19:42:27.839Z,2.80
2022-07-30T19:44:58.923Z,2.50
2022-07-30T19:47:35.245Z,2.73
2022-07-30T19:50:11.602Z,2.33
2022-07-30T19:55:35.569Z,2.33
2022-07-30T19:58:15.956Z,2.40
2022-07-30T20:00:49.216Z,2.40
2022-07-30T20:03:26.238Z,2.47
2022-07-30T20:06:01.228Z,2.70
2022-07-30T20:08:29.813Z,2.40
2022-07-30T20:11:01.477Z,2.30
2022-07-30T20:16:19.173Z,2.43
2022-07-30T20:18:48.469Z,2.27
2022-07-30T20:21:20.421Z,1.70
2022-07-30T20:23:49.247Z,1.67
2022-07-30T20:26:25.077Z,2.17
2022-07-30T20:28:57.696Z,2.63
2022-07-30T20:31:27.621Z,2.20
2022-07-30T20:33:56.419Z,1.27
2022-07-30T20:36:24.806Z,2.10
2022-07-30T20:38:53.077Z,2.07
2022-07-30T20:41:23.025Z,1.80
2022-07-30T20:43:51.887Z,2.30
2022-07-30T20:46:23.774Z,2.70
2022-07-30T20:48:52.813Z,3.13
2022-07-30T20:51:21.571Z,3.07
2022-07-30T20:54:02.020Z,1.50
2022-07-30T20:56:31.728Z,1.80
2022-07-30T20:59:00.171Z,2.07
2022-07-30T21:01:30.737Z,1.40
2022-07-30T21:03:59.290Z,1.70
2022-07-30T21:06:28.172Z,3.03
2022-07-30T21:08:56.771Z,1.73
2022-07-30T21:11:25.356Z,1.80
2022-07-30T21:13:55.680Z,1.80
2022-07-30T21:16:26.768Z,1.40
2022-07-30T21:18:58.894Z,1.60
2022-07-30T21:21:28.966Z,1.57
2022-07-30T21:24:14.396Z,1.87
2022-07-30T21:26:43.224Z,1.47
2022-07-30T21:29:12.976Z,1.43
2022-07-30T21:32:00.472Z,1.33
2022-07-30T21:34:40.309Z,1.50
2022-07-30T21:37:10.623Z,1.20
2022-07-30T21:39:43.811Z,1.70
2022-07-30T21:42:12.821Z,1.50
2022-07-30T21:44:42.482Z,1.60
2022-07-30T21:47:10.965Z,1.53
2022-07-30T21:49:39.791Z,1.80
2022-07-30T21:52:09.120Z,1.60
2022-07-30T21:54:48.391Z,1.50
2022-07-30T21:57:26.326Z,1.97
2022-07-30T21:59:56.657Z,1.63
2022-07-30T22:02:25.572Z,2.20
2022-07-30T22:04:56.377Z,1.70
2022-07-30T22:07:27.472Z,2.57
2022-07-30T22:09:56.102Z,2.43
2022-07-30T22:12:28.809Z,1.57
2022-07-30T22:14:59.258Z,1.53
2022-07-30T22:17:36.825Z,2.17
2022-07-30T22:20:18.885Z,1.60
2022-07-30T22:22:47.524Z,2.03
2022-07-30T22:25:16.813Z,1.20
2022-07-30T22:27:56.229Z,1.77
2022-07-30T22:30:28.343Z,2.00
2022-07-30T22:33:08.156Z,1.70
2022-07-30T22:35:37.255Z,1.90
2022-07-30T22:38:06.325Z,1.67
2022-07-30T22:40:34.658Z,1.50
2022-07-30T22:43:07.792Z,1.80
2022-07-30T22:45:49.049Z,1.80
2022-07-30T22:48:19.292Z,2.27
2022-07-30T22:50:51.759Z,1.97
2022-07-30T22:54:11.478Z,1.57
2022-07-30T22:56:14.154Z,1.73
2022-07-30T22:58:44.721Z,1.80
2022-07-30T23:01:18.276Z,2.00
2022-07-30T23:03:48.136Z,1.60
2022-07-30T23:06:16.479Z,1.70
2022-07-30T23:08:49.932Z,1.90
2022-07-30T23:11:23.310Z,2.03
2022-07-30T23:12:15.970Z,2.93
2022-07-30T23:12:16.785Z,2.70
2022-07-30T23:13:53.860Z,2.27
2022-07-30T23:16:23.361Z,1.63
2022-07-30T23:18:51.452Z,1.93
2022-07-30T23:21:19.474Z,1.80
2022-07-30T23:23:47.585Z,1.73
2022-07-30T23:26:15.675Z,1.53
2022-07-30T23:28:43.872Z,1.60
2022-07-30T23:31:11.961Z,1.50
2022-07-30T23:33:41.810Z,1.83
2022-07-30T23:36:11.115Z,1.60
2022-07-30T23:38:39.436Z,2.00
2022-07-30T23:41:07.464Z,1.93
2022-07-30T23:43:35.892Z,1.70
2022-07-30T23:46:04.629Z,1.60
2022-07-30T23:48:37.807Z,1.50
2022-07-30T23:51:07.253Z,1.70
2022-07-30T23:53:35.299Z,1.80
2022-07-30T23:56:03.938Z,2.00
2022-07-30T23:58:31.995Z,2.00
